sensor_id;sensor_type;location;lat;lon;timestamp;P1;durP1;ratioP1;P2;durP2;ratioP2
61570;SDS011;47463;49.884;10.010;2023-05-07T00:00:00;3.5;;;3;;
61570;SDS011;47463;49.884;10.010;2023-05-07T00:05:00;4.7;;;3.2;;
61570;SDS011;47463;49.884;10.010;2023-05-07T00:10:00;4.2;;;3;;
61570;SDS011;47463;49.884;10.010;2023-05-07T00:15:00;3.8;;;3.1;;
61570;SDS011;47463;49.884;10.010;2023-05-07T00:20:00;3.8;;;3.1;;
61570;SDS011;47463;49.884;10.010;2023-05-07T00:25:00;4.4;;;3.2;;
61570;SDS011;47463;49.884;10.010;2023-05-07T00:30:00;7.1;;;3.2;;
61570;SDS011;47463;49.884;10.010;2023-05-07T00:35:00;5.1;;;3.6;;
61570;SDS011;47463;49.884;10.010;2023-05-07T00:40:00;4.4;;;3.7;;
61570;SDS011;47463;49.884;10.010;2023-05-07T00:45:00;5.1;;;3.9;;
61570;SDS011;47463;49.884;10.010;2023-05-07T00:50:00;5.1;;;3.9;;
61570;SDS011;47463;49.884;10.010;2023-05-07T00:55:00;4;;;3.6;;
61570;SDS011;47463;49.884;10.010;2023-05-07T01:00:00;5.7;;;4;;
61570;SDS011;47463;49.884;10.010;2023-05-07T01:05:00;6.9;;;4;;
61570;SDS011;47463;49.884;10.010;2023-05-07T01:10:00;6.6;;;4.2;;
61570;SDS011;47463;49.884;10.010;2023-05-07T01:15:00;5.9;;;4.5;;
61570;SDS011;47463;49.884;10.010;2023-05-07T01:20:00;5.9;;;4.5;;
61570;SDS011;47463;49.884;10.010;2023-05-07T01:25:00;6.2;;;4.7;;
61570;SDS011;47463;49.884;10.010;2023-05-07T01:30:00;6.4;;;4.8;;
61570;SDS011;47463;49.884;10.010;2023-05-07T01:35:00;6.2;;;5.2;;
61570;SDS011;47463;49.884;10.010;2023-05-07T01:40:00;6.5;;;5.2;;
61570;SDS011;47463;49.884;10.010;2023-05-07T01:45:00;8.3;;;4.9;;
61570;SDS011;47463;49.884;10.010;2023-05-07T01:50:00;8.3;;;4.9;;
61570;SDS011;47463;49.884;10.010;2023-05-07T01:55:00;7.8;;;5.2;;
61570;SDS011;47463;49.884;10.010;2023-05-07T02:00:00;7.3;;;5.5;;
61570;SDS011;47463;49.884;10.010;2023-05-07T02:05:00;7.5;;;6.3;;
61570;SDS011;47463;49.884;10.010;2023-05-07T02:10:00;8.9;;;6.6;;
61570;SDS011;47463;49.884;10.010;2023-05-07T02:15:00;7.3;;;6.4;;
61570;SDS011;47463;49.884;10.010;2023-05-07T02:20:00;7.3;;;6.4;;
61570;SDS011;47463;49.884;10.010;2023-05-07T02:25:00;8.4;;;5.9;;
61570;SDS011;47463;49.884;10.010;2023-05-07T02:30:00;7.7;;;6.4;;
61570;SDS011;47463;49.884;10.010;2023-05-07T02:35:00;9.6;;;7.7;;
61570;SDS011;47463;49.884;10.010;2023-05-07T02:40:00;9.1;;;6.8;;
61570;SDS011;47463;49.884;10.010;2023-05-07T02:45:00;10.5;;;7.3;;
61570;SDS011;47463;49.884;10.010;2023-05-07T02:50:00;10.5;;;7.3;;
61570;SDS011;47463;49.884;10.010;2023-05-07T02:55:00;8.9;;;7.7;;
61570;SDS011;47463;49.884;10.010;2023-05-07T03:00:06;10.1;;;7.9;;
61570;SDS011;47463;49.884;10.010;2023-05-07T03:05:00;9.5;;;7.5;;
61570;SDS011;47463;49.884;10.010;2023-05-07T03:10:00;9;;;7.6;;
61570;SDS011;47463;49.884;10.010;2023-05-07T03:15:00;10.8;;;7.6;;
61570;SDS011;47463;49.884;10.010;2023-05-07T03:20:00;10.8;;;7.6;;
61570;SDS011;47463;49.884;10.010;2023-05-07T03:25:00;9.3;;;7.9;;
61570;SDS011;47463;49.884;10.010;2023-05-07T03:30:00;10.1;;;8.5;;
61570;SDS011;47463;49.884;10.010;2023-05-07T03:35:00;11;;;8.8;;
61570;SDS011;47463;49.884;10.010;2023-05-07T03:40:00;11.2;;;9.1;;
61570;SDS011;47463;49.884;10.010;2023-05-07T03:45:00;12.3;;;9.5;;
61570;SDS011;47463;49.884;10.010;2023-05-07T03:50:00;12.3;;;9.5;;
61570;SDS011;47463;49.884;10.010;2023-05-07T03:55:00;13.3;;;9.5;;
61570;SDS011;47463;49.884;10.010;2023-05-07T04:00:00;12.7;;;10.2;;
61570;SDS011;47463;49.884;10.010;2023-05-07T04:05:00;12;;;10.4;;
61570;SDS011;47463;49.884;10.010;2023-05-07T04:10:00;10.7;;;9.6;;
61570;SDS011;47463;49.884;10.010;2023-05-07T04:15:00;13.9;;;10.9;;
61570;SDS011;47463;49.884;10.010;2023-05-07T04:20:00;13.9;;;10.9;;
61570;SDS011;47463;49.884;10.010;2023-05-07T04:25:00;13.8;;;11;;
61570;SDS011;47463;49.884;10.010;2023-05-07T04:30:00;14;;;11.5;;
61570;SDS011;47463;49.884;10.010;2023-05-07T04:35:00;13.7;;;12.2;;
61570;SDS011;47463;49.884;10.010;2023-05-07T04:40:00;16.6;;;13.1;;
61570;SDS011;47463;49.884;10.010;2023-05-07T04:45:01;15.9;;;12.4;;
61570;SDS011;47463;49.884;10.010;2023-05-07T04:50:00;15.9;;;12.4;;
61570;SDS011;47463;49.884;10.010;2023-05-07T04:55:00;16.7;;;13.3;;
61570;SDS011;47463;49.884;10.010;2023-05-07T05:00:00;17;;;13.7;;
61570;SDS011;47463;49.884;10.010;2023-05-07T05:05:00;18;;;13.4;;
61570;SDS011;47463;49.884;10.010;2023-05-07T05:10:01;19.3;;;15.3;;
61570;SDS011;47463;49.884;10.010;2023-05-07T05:15:00;17;;;13.8;;
61570;SDS011;47463;49.884;10.010;2023-05-07T05:20:00;17;;;13.8;;
61570;SDS011;47463;49.884;10.010;2023-05-07T05:25:00;17.5;;;14.5;;
61570;SDS011;47463;49.884;10.010;2023-05-07T05:30:00;19;;;15.2;;
61570;SDS011;47463;49.884;10.010;2023-05-07T05:35:00;16.4;;;14;;
61570;SDS011;47463;49.884;10.010;2023-05-07T05:40:00;19.4;;;15.7;;
61570;SDS011;47463;49.884;10.010;2023-05-07T05:45:00;18.5;;;15.7;;
61570;SDS011;47463;49.884;10.010;2023-05-07T05:50:00;18.5;;;15.7;;
61570;SDS011;47463;49.884;10.010;2023-05-07T05:55:00;19.6;;;16.4;;
61570;SDS011;47463;49.884;10.010;2023-05-07T06:00:00;23.6;;;16.3;;
61570;SDS011;47463;49.884;10.010;2023-05-07T06:05:00;22.9;;;16.2;;
61570;SDS011;47463;49.884;10.010;2023-05-07T06:10:00;20.2;;;16.2;;
61570;SDS011;47463;49.884;10.010;2023-05-07T06:15:00;21.3;;;17.1;;
61570;SDS011;47463;49.884;10.010;2023-05-07T06:20:00;21.3;;;17.1;;
61570;SDS011;47463;49.884;10.010;2023-05-07T06:25:00;21.1;;;15.9;;
61570;SDS011;47463;49.884;10.010;2023-05-07T06:30:00;20;;;15.7;;
61570;SDS011;47463;49.884;10.010;2023-05-07T06:35:00;18.3;;;14.6;;
61570;SDS011;47463;49.884;10.010;2023-05-07T06:40:00;19.3;;;15.2;;
61570;SDS011;47463;49.884;10.010;2023-05-07T06:45:00;19.7;;;15.6;;
61570;SDS011;47463;49.884;10.010;2023-05-07T06:50:00;19.7;;;15.6;;
61570;SDS011;47463;49.884;10.010;2023-05-07T06:55:00;18.7;;;15.8;;
61570;SDS011;47463;49.884;10.010;2023-05-07T07:00:00;19.7;;;15.7;;
61570;SDS011;47463;49.884;10.010;2023-05-07T07:05:00;22.1;;;16.3;;
61570;SDS011;47463;49.884;10.010;2023-05-07T07:10:00;19.8;;;15.7;;
61570;SDS011;47463;49.884;10.010;2023-05-07T07:15:00;18.2;;;15.6;;
61570;SDS011;47463;49.884;10.010;2023-05-07T07:20:00;18.2;;;15.6;;
61570;SDS011;47463;49.884;10.010;2023-05-07T07:25:00;18.1;;;15.2;;
61570;SDS011;47463;49.884;10.010;2023-05-07T07:30:00;18.3;;;14.4;;
61570;SDS011;47463;49.884;10.010;2023-05-07T07:35:00;18.8;;;15;;
61570;SDS011;47463;49.884;10.010;2023-05-07T07:40:00;20.2;;;13.9;;
61570;SDS011;47463;49.884;10.010;2023-05-07T07:45:00;18.7;;;14.1;;
61570;SDS011;47463;49.884;10.010;2023-05-07T07:50:00;18.7;;;14.1;;
61570;SDS011;47463;49.884;10.010;2023-05-07T07:55:00;15.3;;;12.8;;
61570;SDS011;47463;49.884;10.010;2023-05-07T08:00:00;15.8;;;12.8;;
61570;SDS011;47463;49.884;10.010;2023-05-07T08:05:00;15.2;;;12.9;;
61570;SDS011;47463;49.884;10.010;2023-05-07T08:10:00;16.6;;;12.7;;
61570;SDS011;47463;49.884;10.010;2023-05-07T08:15:00;14.5;;;12.4;;
61570;SDS011;47463;49.884;10.010;2023-05-07T08:20:00;14.5;;;12.4;;
61570;SDS011;47463;49.884;10.010;2023-05-07T08:25:00;14.9;;;13.1;;
61570;SDS011;47463;49.884;10.010;2023-05-07T08:30:00;14.7;;;12.8;;
61570;SDS011;47463;49.884;10.010;2023-05-07T08:35:00;15.5;;;13;;
61570;SDS011;47463;49.884;10.010;2023-05-07T08:40:00;16.8;;;13;;
61570;SDS011;47463;49.884;10.010;2023-05-07T08:45:00;15.7;;;13.7;;
61570;SDS011;47463;49.884;10.010;2023-05-07T08:50:00;15.7;;;13.7;;
61570;SDS011;47463;49.884;10.010;2023-05-07T08:55:00;14.9;;;12.7;;
61570;SDS011;47463;49.884;10.010;2023-05-07T09:00:00;16.4;;;13.3;;
61570;SDS011;47463;49.884;10.010;2023-05-07T09:05:00;14.4;;;12.7;;
61570;SDS011;47463;49.884;10.010;2023-05-07T09:10:00;14.4;;;12.5;;
61570;SDS011;47463;49.884;10.010;2023-05-07T09:15:00;15.4;;;12.5;;
61570;SDS011;47463;49.884;10.010;2023-05-07T09:20:01;15.4;;;12.5;;
61570;SDS011;47463;49.884;10.010;2023-05-07T09:25:00;15.2;;;11.4;;
61570;SDS011;47463;49.884;10.010;2023-05-07T09:30:02;14.4;;;11.5;;
61570;SDS011;47463;49.884;10.010;2023-05-07T09:35:00;17.3;;;12.5;;
61570;SDS011;47463;49.884;10.010;2023-05-07T09:40:00;14.9;;;12.9;;
61570;SDS011;47463;49.884;10.010;2023-05-07T09:45:00;13.9;;;12.4;;
61570;SDS011;47463;49.884;10.010;2023-05-07T09:50:00;13.9;;;12.4;;
61570;SDS011;47463;49.884;10.010;2023-05-07T09:55:00;14.6;;;12.5;;
61570;SDS011;47463;49.884;10.010;2023-05-07T10:00:00;14.6;;;11.7;;
61570;SDS011;47463;49.884;10.010;2023-05-07T10:05:00;12.4;;;11.1;;
61570;SDS011;47463;49.884;10.010;2023-05-07T10:10:00;13.1;;;10.9;;
61570;SDS011;47463;49.884;10.010;2023-05-07T10:15:00;12.6;;;10.4;;
61570;SDS011;47463;49.884;10.010;2023-05-07T10:20:00;12.6;;;10.4;;
61570;SDS011;47463;49.884;10.010;2023-05-07T10:25:00;13.5;;;10.2;;
61570;SDS011;47463;49.884;10.010;2023-05-07T10:30:01;10.9;;;9.8;;
61570;SDS011;47463;49.884;10.010;2023-05-07T10:35:01;14.3;;;10.8;;
61570;SDS011;47463;49.884;10.010;2023-05-07T10:40:00;11.2;;;10.1;;
61570;SDS011;47463;49.884;10.010;2023-05-07T10:45:11;10.5;;;9.4;;
61570;SDS011;47463;49.884;10.010;2023-05-07T10:50:31;10.5;;;9.4;;
61570;SDS011;47463;49.884;10.010;2023-05-07T10:55:31;11.9;;;9.8;;
61570;SDS011;47463;49.884;10.010;2023-05-07T11:00:00;11.7;;;9.6;;
61570;SDS011;47463;49.884;10.010;2023-05-07T11:05:18;10.4;;;9.3;;
61570;SDS011;47463;49.884;10.010;2023-05-07T11:10:01;10.1;;;8.6;;
61570;SDS011;47463;49.884;10.010;2023-05-07T11:15:00;10.2;;;7.8;;
61570;SDS011;47463;49.884;10.010;2023-05-07T11:20:00;10.2;;;7.8;;
61570;SDS011;47463;49.884;10.010;2023-05-07T11:25:00;8.5;;;7.7;;
61570;SDS011;47463;49.884;10.010;2023-05-07T11:30:00;10.1;;;9.1;;
61570;SDS011;47463;49.884;10.010;2023-05-07T11:35:00;9.7;;;8;;
61570;SDS011;47463;49.884;10.010;2023-05-07T11:40:03;10.3;;;8.2;;
61570;SDS011;47463;49.884;10.010;2023-05-07T11:45:00;9.3;;;8.3;;
61570;SDS011;47463;49.884;10.010;2023-05-07T11:50:02;9.3;;;8.3;;
61570;SDS011;47463;49.884;10.010;2023-05-07T11:55:00;9.8;;;8.2;;
61570;SDS011;47463;49.884;10.010;2023-05-07T12:00:00;9.4;;;8.4;;
61570;SDS011;47463;49.884;10.010;2023-05-07T12:05:00;8.5;;;7.5;;
61570;SDS011;47463;49.884;10.010;2023-05-07T12:10:03;6.3;;;5.7;;
61570;SDS011;47463;49.884;10.010;2023-05-07T12:15:00;9;;;8.1;;
61570;SDS011;47463;49.884;10.010;2023-05-07T12:20:00;9;;;8.1;;
61570;SDS011;47463;49.884;10.010;2023-05-07T12:25:00;8.6;;;7.5;;
61570;SDS011;47463;49.884;10.010;2023-05-07T12:30:00;8.4;;;6.6;;
61570;SDS011;47463;49.884;10.010;2023-05-07T12:35:00;7.2;;;6.5;;
61570;SDS011;47463;49.884;10.010;2023-05-07T12:40:03;8;;;7.1;;
61570;SDS011;47463;49.884;10.010;2023-05-07T12:45:00;7.6;;;6.6;;
61570;SDS011;47463;49.884;10.010;2023-05-07T12:50:00;7.6;;;6.6;;
61570;SDS011;47463;49.884;10.010;2023-05-07T12:55:04;6.9;;;6.1;;
61570;SDS011;47463;49.884;10.010;2023-05-07T13:00:00;6.2;;;5.6;;
61570;SDS011;47463;49.884;10.010;2023-05-07T13:05:00;7.5;;;5.1;;
61570;SDS011;47463;49.884;10.010;2023-05-07T13:10:00;6.7;;;6;;
61570;SDS011;47463;49.884;10.010;2023-05-07T13:15:00;7.6;;;5.4;;
61570;SDS011;47463;49.884;10.010;2023-05-07T13:20:00;7.6;;;5.4;;
61570;SDS011;47463;49.884;10.010;2023-05-07T13:25:00;6.8;;;6.1;;
61570;SDS011;47463;49.884;10.010;2023-05-07T13:30:00;6.2;;;5.5;;
61570;SDS011;47463;49.884;10.010;2023-05-07T13:35:00;10.8;;;6.9;;
61570;SDS011;47463;49.884;10.010;2023-05-07T13:40:00;8.8;;;6.4;;
61570;SDS011;47463;49.884;10.010;2023-05-07T13:45:00;8.6;;;6;;
61570;SDS011;47463;49.884;10.010;2023-05-07T13:50:00;8.6;;;6;;
61570;SDS011;47463;49.884;10.010;2023-05-07T13:55:00;7.1;;;6.4;;
61570;SDS011;47463;49.884;10.010;2023-05-07T14:00:00;7;;;6.4;;
61570;SDS011;47463;49.884;10.010;2023-05-07T14:05:00;6.8;;;6.1;;
61570;SDS011;47463;49.884;10.010;2023-05-07T14:10:00;8.7;;;6.2;;
61570;SDS011;47463;49.884;10.010;2023-05-07T14:15:00;6.2;;;5.5;;
61570;SDS011;47463;49.884;10.010;2023-05-07T14:20:00;6.2;;;5.5;;
61570;SDS011;47463;49.884;10.010;2023-05-07T14:25:00;6.6;;;5.9;;
61570;SDS011;47463;49.884;10.010;2023-05-07T14:30:00;8.8;;;6.2;;
61570;SDS011;47463;49.884;10.010;2023-05-07T14:35:00;6.4;;;5.7;;
61570;SDS011;47463;49.884;10.010;2023-05-07T14:40:00;6.7;;;6;;
61570;SDS011;47463;49.884;10.010;2023-05-07T14:45:00;6.7;;;6;;
61570;SDS011;47463;49.884;10.010;2023-05-07T14:50:00;6.7;;;6;;
61570;SDS011;47463;49.884;10.010;2023-05-07T14:55:00;5.7;;;5.1;;
61570;SDS011;47463;49.884;10.010;2023-05-07T15:00:00;6.4;;;5.7;;
61570;SDS011;47463;49.884;10.010;2023-05-07T15:05:00;5.6;;;5;;
61570;SDS011;47463;49.884;10.010;2023-05-07T15:10:00;5.8;;;5.3;;
61570;SDS011;47463;49.884;10.010;2023-05-07T15:15:00;6;;;5.4;;
61570;SDS011;47463;49.884;10.010;2023-05-07T15:20:00;6;;;5.4;;
61570;SDS011;47463;49.884;10.010;2023-05-07T15:25:00;5.5;;;5;;
61570;SDS011;47463;49.884;10.010;2023-05-07T15:30:00;6.9;;;5.2;;
61570;SDS011;47463;49.884;10.010;2023-05-07T15:35:00;5.9;;;5.3;;
61570;SDS011;47463;49.884;10.010;2023-05-07T15:40:00;6;;;5.5;;
61570;SDS011;47463;49.884;10.010;2023-05-07T15:45:00;6.4;;;5.6;;
61570;SDS011;47463;49.884;10.010;2023-05-07T15:50:00;6.4;;;5.6;;
61570;SDS011;47463;49.884;10.010;2023-05-07T15:55:00;5.8;;;5.2;;
61570;SDS011;47463;49.884;10.010;2023-05-07T16:00:00;7.2;;;5.8;;
61570;SDS011;47463;49.884;10.010;2023-05-07T16:05:00;6;;;5.4;;
61570;SDS011;47463;49.884;10.010;2023-05-07T16:10:00;6.1;;;5.4;;
61570;SDS011;47463;49.884;10.010;2023-05-07T16:15:00;5.4;;;4.9;;
61570;SDS011;47463;49.884;10.010;2023-05-07T16:20:00;5.4;;;4.9;;
61570;SDS011;47463;49.884;10.010;2023-05-07T16:25:00;6;;;5;;
61570;SDS011;47463;49.884;10.010;2023-05-07T16:30:00;6.1;;;5.5;;
61570;SDS011;47463;49.884;10.010;2023-05-07T16:35:00;6.4;;;5.6;;
61570;SDS011;47463;49.884;10.010;2023-05-07T16:40:00;6.5;;;5.7;;
61570;SDS011;47463;49.884;10.010;2023-05-07T16:45:00;7;;;5.9;;
61570;SDS011;47463;49.884;10.010;2023-05-07T16:50:00;7;;;5.9;;
61570;SDS011;47463;49.884;10.010;2023-05-07T16:55:00;6;;;5.4;;
61570;SDS011;47463;49.884;10.010;2023-05-07T17:00:00;6;;;5.3;;
61570;SDS011;47463;49.884;10.010;2023-05-07T17:05:00;6.8;;;5.5;;
61570;SDS011;47463;49.884;10.010;2023-05-07T17:10:00;6.3;;;5.6;;
61570;SDS011;47463;49.884;10.010;2023-05-07T17:15:00;5.5;;;4.8;;
61570;SDS011;47463;49.884;10.010;2023-05-07T17:20:00;5.5;;;4.8;;
61570;SDS011;47463;49.884;10.010;2023-05-07T17:25:00;5.2;;;4.6;;
61570;SDS011;47463;49.884;10.010;2023-05-07T17:30:00;6.2;;;5;;
61570;SDS011;47463;49.884;10.010;2023-05-07T17:35:00;6.1;;;5;;
61570;SDS011;47463;49.884;10.010;2023-05-07T17:40:00;7.4;;;6.5;;
61570;SDS011;47463;49.884;10.010;2023-05-07T17:45:00;6.3;;;5.5;;
61570;SDS011;47463;49.884;10.010;2023-05-07T17:50:00;6.3;;;5.5;;
61570;SDS011;47463;49.884;10.010;2023-05-07T17:55:00;8.3;;;6.5;;
61570;SDS011;47463;49.884;10.010;2023-05-07T18:00:00;11;;;6.5;;
61570;SDS011;47463;49.884;10.010;2023-05-07T18:05:00;6.8;;;6;;
61570;SDS011;47463;49.884;10.010;2023-05-07T18:10:00;8.6;;;6.6;;
61570;SDS011;47463;49.884;10.010;2023-05-07T18:15:00;7.8;;;6.5;;
61570;SDS011;47463;49.884;10.010;2023-05-07T18:20:00;7.8;;;6.5;;
61570;SDS011;47463;49.884;10.010;2023-05-07T18:25:00;8.1;;;6.7;;
61570;SDS011;47463;49.884;10.010;2023-05-07T18:30:00;8.7;;;6.4;;
61570;SDS011;47463;49.884;10.010;2023-05-07T18:35:00;8.4;;;6.4;;
61570;SDS011;47463;49.884;10.010;2023-05-07T18:40:00;7.5;;;6.1;;
61570;SDS011;47463;49.884;10.010;2023-05-07T18:45:00;6.8;;;5.9;;
61570;SDS011;47463;49.884;10.010;2023-05-07T18:50:00;6.8;;;5.9;;
61570;SDS011;47463;49.884;10.010;2023-05-07T18:55:00;7.8;;;6.3;;
61570;SDS011;47463;49.884;10.010;2023-05-07T19:00:00;6.9;;;6;;
61570;SDS011;47463;49.884;10.010;2023-05-07T19:05:00;7.5;;;6.1;;
61570;SDS011;47463;49.884;10.010;2023-05-07T19:10:00;7.9;;;5.9;;
61570;SDS011;47463;49.884;10.010;2023-05-07T19:15:00;10.1;;;5.9;;
61570;SDS011;47463;49.884;10.010;2023-05-07T19:20:00;10.1;;;5.9;;
61570;SDS011;47463;49.884;10.010;2023-05-07T19:25:00;7.2;;;5.8;;
61570;SDS011;47463;49.884;10.010;2023-05-07T19:30:00;7.7;;;6.1;;
61570;SDS011;47463;49.884;10.010;2023-05-07T19:35:00;7.3;;;5.8;;
61570;SDS011;47463;49.884;10.010;2023-05-07T19:40:00;7;;;5.9;;
61570;SDS011;47463;49.884;10.010;2023-05-07T19:45:00;7.7;;;5.6;;
61570;SDS011;47463;49.884;10.010;2023-05-07T19:50:00;7.7;;;5.6;;
61570;SDS011;47463;49.884;10.010;2023-05-07T19:55:00;6.6;;;5.5;;
61570;SDS011;47463;49.884;10.010;2023-05-07T20:00:00;6.2;;;5.6;;
61570;SDS011;47463;49.884;10.010;2023-05-07T20:05:00;7.1;;;5.9;;
61570;SDS011;47463;49.884;10.010;2023-05-07T20:10:00;6.7;;;5.5;;
61570;SDS011;47463;49.884;10.010;2023-05-07T20:15:00;6.3;;;5.4;;
61570;SDS011;47463;49.884;10.010;2023-05-07T20:20:00;6.3;;;5.4;;
61570;SDS011;47463;49.884;10.010;2023-05-07T20:25:00;7.7;;;5.8;;
61570;SDS011;47463;49.884;10.010;2023-05-07T20:30:00;6.9;;;5.5;;
61570;SDS011;47463;49.884;10.010;2023-05-07T20:35:00;7.3;;;6.1;;
61570;SDS011;47463;49.884;10.010;2023-05-07T20:40:00;7.7;;;6.1;;
61570;SDS011;47463;49.884;10.010;2023-05-07T20:45:00;6.7;;;6;;
61570;SDS011;47463;49.884;10.010;2023-05-07T20:50:00;6.7;;;6;;
61570;SDS011;47463;49.884;10.010;2023-05-07T20:55:00;7.3;;;5.8;;
61570;SDS011;47463;49.884;10.010;2023-05-07T21:00:00;7.7;;;6;;
61570;SDS011;47463;49.884;10.010;2023-05-07T21:05:00;8.4;;;6;;
61570;SDS011;47463;49.884;10.010;2023-05-07T21:10:00;7.1;;;6.1;;
61570;SDS011;47463;49.884;10.010;2023-05-07T21:15:00;6.4;;;5.8;;
61570;SDS011;47463;49.884;10.010;2023-05-07T21:20:00;6.4;;;5.8;;
61570;SDS011;47463;49.884;10.010;2023-05-07T21:25:00;8.1;;;6.6;;
61570;SDS011;47463;49.884;10.010;2023-05-07T21:30:00;6.7;;;6;;
61570;SDS011;47463;49.884;10.010;2023-05-07T21:35:00;7.6;;;6.7;;
61570;SDS011;47463;49.884;10.010;2023-05-07T21:40:00;8.9;;;7.3;;
61570;SDS011;47463;49.884;10.010;2023-05-07T21:45:00;9.3;;;6.6;;
61570;SDS011;47463;49.884;10.010;2023-05-07T21:50:00;9.3;;;6.6;;
61570;SDS011;47463;49.884;10.010;2023-05-07T21:55:00;7.9;;;7.1;;
61570;SDS011;47463;49.884;10.010;2023-05-07T22:00:00;8.4;;;7;;
61570;SDS011;47463;49.884;10.010;2023-05-07T22:05:00;7.7;;;6.8;;
61570;SDS011;47463;49.884;10.010;2023-05-07T22:10:00;7.8;;;7;;
61570;SDS011;47463;49.884;10.010;2023-05-07T22:15:00;10.4;;;7.7;;
61570;SDS011;47463;49.884;10.010;2023-05-07T22:20:00;10.4;;;7.7;;
61570;SDS011;47463;49.884;10.010;2023-05-07T22:25:00;8.1;;;7.2;;
61570;SDS011;47463;49.884;10.010;2023-05-07T22:30:00;9.3;;;7.7;;
61570;SDS011;47463;49.884;10.010;2023-05-07T22:35:00;9;;;8.1;;
61570;SDS011;47463;49.884;10.010;2023-05-07T22:40:00;9.8;;;7.8;;
61570;SDS011;47463;49.884;10.010;2023-05-07T22:45:00;8.8;;;7.9;;
61570;SDS011;47463;49.884;10.010;2023-05-07T22:50:00;8.8;;;7.9;;
61570;SDS011;47463;49.884;10.010;2023-05-07T22:55:00;9.6;;;8.6;;
61570;SDS011;47463;49.884;10.010;2023-05-07T23:00:00;9.1;;;8.2;;
61570;SDS011;47463;49.884;10.010;2023-05-07T23:05:00;10.2;;;8.4;;
61570;SDS011;47463;49.884;10.010;2023-05-07T23:10:00;10.3;;;8.3;;
61570;SDS011;47463;49.884;10.010;2023-05-07T23:15:00;10.1;;;8.3;;
61570;SDS011;47463;49.884;10.010;2023-05-07T23:20:00;10.1;;;8.3;;
61570;SDS011;47463;49.884;10.010;2023-05-07T23:25:00;9.8;;;8.5;;
61570;SDS011;47463;49.884;10.010;2023-05-07T23:30:00;10;;;8.9;;
61570;SDS011;47463;49.884;10.010;2023-05-07T23:35:00;11.3;;;9.3;;
61570;SDS011;47463;49.884;10.010;2023-05-07T23:40:00;11.1;;;9;;
61570;SDS011;47463;49.884;10.010;2023-05-07T23:45:00;11.4;;;9.9;;
61570;SDS011;47463;49.884;10.010;2023-05-07T23:50:00;11.4;;;9.9;;
61570;SDS011;47463;49.884;10.010;2023-05-07T23:55:00;10.5;;;9.2;;
